sensor_id;sensor_type;location;lat;lon;timestamp;P1;durP1;ratioP1;P2;durP2;ratioP2
40256;SDS011;25977;45.462;9.210;2023-11-21T00:00:12;48.70;;;29.33;;
40256;SDS011;25977;45.462;9.210;2023-11-21T00:02:39;42.95;;;26.45;;
40256;SDS011;25977;45.462;9.210;2023-11-21T00:05:09;40.47;;;26.65;;
40256;SDS011;25977;45.462;9.210;2023-11-21T00:07:36;42.90;;;26.73;;
40256;SDS011;25977;45.462;9.210;2023-11-21T00:10:02;41.40;;;25.77;;
40256;SDS011;25977;45.462;9.210;2023-11-21T00:12:30;40.53;;;25.40;;
40256;SDS011;25977;45.462;9.210;2023-11-21T00:14:56;39.58;;;25.88;;
40256;SDS011;25977;45.462;9.210;2023-11-21T00:17:22;43.65;;;26.88;;
40256;SDS011;25977;45.462;9.210;2023-11-21T00:19:49;40.60;;;25.25;;
40256;SDS011;25977;45.462;9.210;2023-11-21T00:22:17;40.05;;;25.65;;
40256;SDS011;25977;45.462;9.210;2023-11-21T00:24:43;43.03;;;26.98;;
40256;SDS011;25977;45.462;9.210;2023-11-21T00:27:09;41.67;;;25.77;;
40256;SDS011;25977;45.462;9.210;2023-11-21T00:29:35;46.58;;;26.70;;
40256;SDS011;25977;45.462;9.210;2023-11-21T00:32:00;41.65;;;25.13;;
40256;SDS011;25977;45.462;9.210;2023-11-21T00:34:27;37.88;;;25.20;;
40256;SDS011;25977;45.462;9.210;2023-11-21T00:36:53;42.40;;;24.13;;
40256;SDS011;25977;45.462;9.210;2023-11-21T00:39:19;41.22;;;25.60;;
40256;SDS011;25977;45.462;9.210;2023-11-21T00:41:45;41.80;;;26.65;;
40256;SDS011;25977;45.462;9.210;2023-11-21T00:44:11;43.28;;;25.48;;
40256;SDS011;25977;45.462;9.210;2023-11-21T00:46:36;43.10;;;25.25;;
40256;SDS011;25977;45.462;9.210;2023-11-21T00:49:02;41.00;;;24.52;;
40256;SDS011;25977;45.462;9.210;2023-11-21T00:51:31;52.88;;;27.35;;
40256;SDS011;25977;45.462;9.210;2023-11-21T00:53:56;41.25;;;25.30;;
40256;SDS011;25977;45.462;9.210;2023-11-21T00:56:23;41.72;;;24.67;;
40256;SDS011;25977;45.462;9.210;2023-11-21T00:58:49;44.83;;;24.20;;
40256;SDS011;25977;45.462;9.210;2023-11-21T01:01:17;42.45;;;25.48;;
40256;SDS011;25977;45.462;9.210;2023-11-21T01:03:47;43.28;;;24.40;;
40256;SDS011;25977;45.462;9.210;2023-11-21T01:06:14;36.00;;;23.80;;
40256;SDS011;25977;45.462;9.210;2023-11-21T01:08:43;44.33;;;24.45;;
40256;SDS011;25977;45.462;9.210;2023-11-21T01:11:09;39.88;;;24.42;;
40256;SDS011;25977;45.462;9.210;2023-11-21T01:13:37;40.63;;;23.80;;
40256;SDS011;25977;45.462;9.210;2023-11-21T01:16:06;41.83;;;25.48;;
40256;SDS011;25977;45.462;9.210;2023-11-21T01:18:33;42.05;;;23.02;;
40256;SDS011;25977;45.462;9.210;2023-11-21T01:21:00;43.95;;;24.85;;
40256;SDS011;25977;45.462;9.210;2023-11-21T01:23:25;41.28;;;24.15;;
40256;SDS011;25977;45.462;9.210;2023-11-21T01:25:52;34.85;;;22.85;;
40256;SDS011;25977;45.462;9.210;2023-11-21T01:28:18;35.50;;;22.35;;
40256;SDS011;25977;45.462;9.210;2023-11-21T01:30:44;39.03;;;23.38;;
40256;SDS011;25977;45.462;9.210;2023-11-21T01:33:11;37.60;;;23.83;;
40256;SDS011;25977;45.462;9.210;2023-11-21T01:35:36;36.78;;;22.98;;
40256;SDS011;25977;45.462;9.210;2023-11-21T01:38:03;35.30;;;23.38;;
40256;SDS011;25977;45.462;9.210;2023-11-21T01:40:31;40.40;;;23.38;;
40256;SDS011;25977;45.462;9.210;2023-11-21T01:42:56;49.45;;;24.05;;
40256;SDS011;25977;45.462;9.210;2023-11-21T01:45:23;34.78;;;21.38;;
40256;SDS011;25977;45.462;9.210;2023-11-21T01:47:50;34.80;;;20.38;;
40256;SDS011;25977;45.462;9.210;2023-11-21T01:50:16;39.72;;;22.80;;
40256;SDS011;25977;45.462;9.210;2023-11-21T01:52:43;41.60;;;23.52;;
40256;SDS011;25977;45.462;9.210;2023-11-21T01:55:10;35.63;;;22.73;;
40256;SDS011;25977;45.462;9.210;2023-11-21T01:57:39;38.15;;;21.55;;
40256;SDS011;25977;45.462;9.210;2023-11-21T02:00:05;35.28;;;22.15;;
40256;SDS011;25977;45.462;9.210;2023-11-21T02:02:41;35.65;;;21.88;;
40256;SDS011;25977;45.462;9.210;2023-11-21T02:05:09;39.05;;;24.02;;
40256;SDS011;25977;45.462;9.210;2023-11-21T02:07:45;33.30;;;21.15;;
40256;SDS011;25977;45.462;9.210;2023-11-21T02:10:14;37.20;;;23.25;;
40256;SDS011;25977;45.462;9.210;2023-11-21T02:12:41;38.17;;;23.20;;
40256;SDS011;25977;45.462;9.210;2023-11-21T02:15:08;31.13;;;21.05;;
40256;SDS011;25977;45.462;9.210;2023-11-21T02:20:10;33.47;;;19.88;;
40256;SDS011;25977;45.462;9.210;2023-11-21T02:22:42;31.50;;;20.27;;
40256;SDS011;25977;45.462;9.210;2023-11-21T02:25:08;39.70;;;22.23;;
40256;SDS011;25977;45.462;9.210;2023-11-21T02:27:34;39.95;;;22.58;;
40256;SDS011;25977;45.462;9.210;2023-11-21T02:30:00;36.80;;;23.77;;
40256;SDS011;25977;45.462;9.210;2023-11-21T02:32:26;35.20;;;22.33;;
40256;SDS011;25977;45.462;9.210;2023-11-21T02:34:52;36.28;;;21.20;;
40256;SDS011;25977;45.462;9.210;2023-11-21T02:37:21;36.58;;;20.92;;
40256;SDS011;25977;45.462;9.210;2023-11-21T02:39:46;35.13;;;21.05;;
40256;SDS011;25977;45.462;9.210;2023-11-21T02:42:12;34.95;;;20.42;;
40256;SDS011;25977;45.462;9.210;2023-11-21T02:44:37;33.88;;;21.25;;
40256;SDS011;25977;45.462;9.210;2023-11-21T02:47:04;37.30;;;21.85;;
40256;SDS011;25977;45.462;9.210;2023-11-21T02:49:30;35.17;;;20.95;;
40256;SDS011;25977;45.462;9.210;2023-11-21T02:51:56;45.13;;;19.75;;
40256;SDS011;25977;45.462;9.210;2023-11-21T02:54:22;33.83;;;19.98;;
40256;SDS011;25977;45.462;9.210;2023-11-21T02:56:48;40.50;;;21.42;;
40256;SDS011;25977;45.462;9.210;2023-11-21T02:59:14;35.10;;;18.65;;
40256;SDS011;25977;45.462;9.210;2023-11-21T03:01:40;35.85;;;20.33;;
40256;SDS011;25977;45.462;9.210;2023-11-21T03:04:07;32.95;;;19.20;;
40256;SDS011;25977;45.462;9.210;2023-11-21T03:06:33;32.28;;;20.33;;
40256;SDS011;25977;45.462;9.210;2023-11-21T03:08:59;35.95;;;19.02;;
40256;SDS011;25977;45.462;9.210;2023-11-21T03:11:25;34.25;;;20.85;;
40256;SDS011;25977;45.462;9.210;2023-11-21T03:13:51;34.05;;;19.98;;
40256;SDS011;25977;45.462;9.210;2023-11-21T03:16:17;36.40;;;21.65;;
40256;SDS011;25977;45.462;9.210;2023-11-21T03:18:44;36.25;;;18.30;;
40256;SDS011;25977;45.462;9.210;2023-11-21T03:21:11;34.78;;;20.15;;
40256;SDS011;25977;45.462;9.210;2023-11-21T03:23:38;32.88;;;19.45;;
40256;SDS011;25977;45.462;9.210;2023-11-21T03:26:03;34.80;;;20.83;;
40256;SDS011;25977;45.462;9.210;2023-11-21T03:28:29;33.22;;;20.15;;
40256;SDS011;25977;45.462;9.210;2023-11-21T03:30:56;40.25;;;19.33;;
40256;SDS011;25977;45.462;9.210;2023-11-21T03:33:21;39.63;;;20.70;;
40256;SDS011;25977;45.462;9.210;2023-11-21T03:35:48;33.38;;;20.15;;
40256;SDS011;25977;45.462;9.210;2023-11-21T03:38:14;32.55;;;18.65;;
40256;SDS011;25977;45.462;9.210;2023-11-21T03:40:41;47.33;;;20.30;;
40256;SDS011;25977;45.462;9.210;2023-11-21T03:43:07;42.70;;;19.50;;
40256;SDS011;25977;45.462;9.210;2023-11-21T03:45:32;33.40;;;19.73;;
40256;SDS011;25977;45.462;9.210;2023-11-21T03:47:58;41.42;;;19.60;;
40256;SDS011;25977;45.462;9.210;2023-11-21T03:50:28;34.60;;;18.88;;
40256;SDS011;25977;45.462;9.210;2023-11-21T03:52:54;41.22;;;19.52;;
40256;SDS011;25977;45.462;9.210;2023-11-21T03:55:21;36.65;;;18.58;;
40256;SDS011;25977;45.462;9.210;2023-11-21T03:57:49;35.47;;;19.05;;
40256;SDS011;25977;45.462;9.210;2023-11-21T04:00:14;38.67;;;19.25;;
40256;SDS011;25977;45.462;9.210;2023-11-21T04:02:41;37.90;;;19.52;;
40256;SDS011;25977;45.462;9.210;2023-11-21T04:05:06;39.83;;;20.30;;
40256;SDS011;25977;45.462;9.210;2023-11-21T04:07:32;36.45;;;18.98;;
40256;SDS011;25977;45.462;9.210;2023-11-21T04:09:59;37.25;;;19.20;;
40256;SDS011;25977;45.462;9.210;2023-11-21T04:12:25;35.88;;;18.70;;
40256;SDS011;25977;45.462;9.210;2023-11-21T04:14:50;35.80;;;18.75;;
40256;SDS011;25977;45.462;9.210;2023-11-21T04:17:19;33.33;;;18.83;;
40256;SDS011;25977;45.462;9.210;2023-11-21T04:19:46;33.22;;;16.55;;
40256;SDS011;25977;45.462;9.210;2023-11-21T04:22:11;35.58;;;18.27;;
40256;SDS011;25977;45.462;9.210;2023-11-21T04:24:37;38.60;;;17.17;;
40256;SDS011;25977;45.462;9.210;2023-11-21T04:27:03;37.03;;;17.33;;
40256;SDS011;25977;45.462;9.210;2023-11-21T04:29:29;31.63;;;17.67;;
40256;SDS011;25977;45.462;9.210;2023-11-21T04:31:55;34.88;;;18.60;;
40256;SDS011;25977;45.462;9.210;2023-11-21T04:34:21;36.70;;;19.13;;
40256;SDS011;25977;45.462;9.210;2023-11-21T04:36:47;36.45;;;17.45;;
40256;SDS011;25977;45.462;9.210;2023-11-21T04:39:13;26.98;;;16.15;;
40256;SDS011;25977;45.462;9.210;2023-11-21T04:41:39;36.85;;;19.10;;
40256;SDS011;25977;45.462;9.210;2023-11-21T04:44:05;36.38;;;16.67;;
40256;SDS011;25977;45.462;9.210;2023-11-21T04:46:31;32.42;;;16.05;;
40256;SDS011;25977;45.462;9.210;2023-11-21T04:48:57;34.72;;;17.73;;
40256;SDS011;25977;45.462;9.210;2023-11-21T04:51:23;31.27;;;17.92;;
40256;SDS011;25977;45.462;9.210;2023-11-21T04:53:49;29.83;;;17.85;;
40256;SDS011;25977;45.462;9.210;2023-11-21T04:56:15;45.92;;;18.10;;
40256;SDS011;25977;45.462;9.210;2023-11-21T04:58:41;33.05;;;16.75;;
40256;SDS011;25977;45.462;9.210;2023-11-21T05:01:07;35.13;;;18.48;;
40256;SDS011;25977;45.462;9.210;2023-11-21T05:03:33;35.35;;;17.15;;
40256;SDS011;25977;45.462;9.210;2023-11-21T05:05:59;33.50;;;16.65;;
40256;SDS011;25977;45.462;9.210;2023-11-21T05:08:25;30.65;;;17.13;;
40256;SDS011;25977;45.462;9.210;2023-11-21T05:10:51;41.97;;;15.63;;
40256;SDS011;25977;45.462;9.210;2023-11-21T05:13:18;38.95;;;16.77;;
40256;SDS011;25977;45.462;9.210;2023-11-21T05:15:45;35.45;;;18.90;;
40256;SDS011;25977;45.462;9.210;2023-11-21T05:18:11;38.47;;;17.55;;
40256;SDS011;25977;45.462;9.210;2023-11-21T05:20:38;39.00;;;17.98;;
40256;SDS011;25977;45.462;9.210;2023-11-21T05:23:06;34.75;;;17.52;;
40256;SDS011;25977;45.462;9.210;2023-11-21T05:25:32;32.13;;;16.88;;
40256;SDS011;25977;45.462;9.210;2023-11-21T05:27:59;40.38;;;16.17;;
40256;SDS011;25977;45.462;9.210;2023-11-21T05:30:26;34.75;;;18.50;;
40256;SDS011;25977;45.462;9.210;2023-11-21T05:32:53;30.83;;;16.92;;
40256;SDS011;25977;45.462;9.210;2023-11-21T05:35:18;34.45;;;15.95;;
40256;SDS011;25977;45.462;9.210;2023-11-21T05:37:45;42.20;;;18.25;;
40256;SDS011;25977;45.462;9.210;2023-11-21T05:40:11;31.00;;;15.95;;
40256;SDS011;25977;45.462;9.210;2023-11-21T05:42:38;36.25;;;16.15;;
40256;SDS011;25977;45.462;9.210;2023-11-21T05:45:05;39.55;;;17.80;;
40256;SDS011;25977;45.462;9.210;2023-11-21T05:47:39;33.70;;;17.17;;
40256;SDS011;25977;45.462;9.210;2023-11-21T05:50:07;36.95;;;16.27;;
40256;SDS011;25977;45.462;9.210;2023-11-21T05:52:37;31.25;;;16.60;;
40256;SDS011;25977;45.462;9.210;2023-11-21T05:55:04;25.10;;;14.95;;
40256;SDS011;25977;45.462;9.210;2023-11-21T05:57:37;29.70;;;15.88;;
40256;SDS011;25977;45.462;9.210;2023-11-21T06:02:39;36.03;;;16.38;;
40256;SDS011;25977;45.462;9.210;2023-11-21T06:05:06;28.23;;;15.20;;
40256;SDS011;25977;45.462;9.210;2023-11-21T06:07:32;31.15;;;16.77;;
40256;SDS011;25977;45.462;9.210;2023-11-21T06:09:58;29.77;;;16.02;;
40256;SDS011;25977;45.462;9.210;2023-11-21T06:12:24;32.20;;;16.70;;
40256;SDS011;25977;45.462;9.210;2023-11-21T06:14:50;26.55;;;16.00;;
40256;SDS011;25977;45.462;9.210;2023-11-21T06:17:16;31.40;;;16.33;;
40256;SDS011;25977;45.462;9.210;2023-11-21T06:19:43;33.65;;;16.20;;
40256;SDS011;25977;45.462;9.210;2023-11-21T06:22:10;35.67;;;15.73;;
40256;SDS011;25977;45.462;9.210;2023-11-21T06:24:37;30.10;;;14.63;;
40256;SDS011;25977;45.462;9.210;2023-11-21T06:27:03;33.72;;;15.63;;
40256;SDS011;25977;45.462;9.210;2023-11-21T06:29:30;28.00;;;15.85;;
40256;SDS011;25977;45.462;9.210;2023-11-21T06:31:57;33.85;;;16.90;;
40256;SDS011;25977;45.462;9.210;2023-11-21T06:34:23;31.98;;;15.05;;
40256;SDS011;25977;45.462;9.210;2023-11-21T06:36:49;33.22;;;14.80;;
40256;SDS011;25977;45.462;9.210;2023-11-21T06:39:16;37.85;;;14.88;;
40256;SDS011;25977;45.462;9.210;2023-11-21T06:41:42;29.38;;;15.13;;
40256;SDS011;25977;45.462;9.210;2023-11-21T06:44:08;30.23;;;14.77;;
40256;SDS011;25977;45.462;9.210;2023-11-21T06:46:34;43.67;;;15.48;;
40256;SDS011;25977;45.462;9.210;2023-11-21T06:48:59;29.63;;;15.05;;
40256;SDS011;25977;45.462;9.210;2023-11-21T06:51:25;29.13;;;15.45;;
40256;SDS011;25977;45.462;9.210;2023-11-21T06:53:51;33.95;;;16.70;;
40256;SDS011;25977;45.462;9.210;2023-11-21T06:56:17;35.45;;;16.73;;
40256;SDS011;25977;45.462;9.210;2023-11-21T06:58:44;29.67;;;16.33;;
40256;SDS011;25977;45.462;9.210;2023-11-21T07:01:11;32.42;;;15.05;;
40256;SDS011;25977;45.462;9.210;2023-11-21T07:03:38;29.63;;;15.52;;
40256;SDS011;25977;45.462;9.210;2023-11-21T07:06:04;31.30;;;16.35;;
40256;SDS011;25977;45.462;9.210;2023-11-21T07:08:30;33.60;;;19.00;;
40256;SDS011;25977;45.462;9.210;2023-11-21T07:10:56;31.45;;;16.52;;
40256;SDS011;25977;45.462;9.210;2023-11-21T07:13:22;34.08;;;16.25;;
40256;SDS011;25977;45.462;9.210;2023-11-21T07:15:48;30.85;;;17.60;;
40256;SDS011;25977;45.462;9.210;2023-11-21T07:18:14;38.28;;;19.90;;
40256;SDS011;25977;45.462;9.210;2023-11-21T07:20:40;31.80;;;17.17;;
40256;SDS011;25977;45.462;9.210;2023-11-21T07:23:06;33.05;;;19.05;;
40256;SDS011;25977;45.462;9.210;2023-11-21T07:25:32;37.17;;;18.05;;
40256;SDS011;25977;45.462;9.210;2023-11-21T07:27:59;35.75;;;18.58;;
40256;SDS011;25977;45.462;9.210;2023-11-21T07:30:25;41.42;;;20.23;;
40256;SDS011;25977;45.462;9.210;2023-11-21T07:32:52;43.63;;;19.50;;
40256;SDS011;25977;45.462;9.210;2023-11-21T07:35:18;39.00;;;19.60;;
40256;SDS011;25977;45.462;9.210;2023-11-21T07:37:43;41.92;;;21.17;;
40256;SDS011;25977;45.462;9.210;2023-11-21T07:40:09;33.30;;;17.80;;
40256;SDS011;25977;45.462;9.210;2023-11-21T07:42:37;34.20;;;20.58;;
40256;SDS011;25977;45.462;9.210;2023-11-21T07:45:04;47.13;;;20.88;;
40256;SDS011;25977;45.462;9.210;2023-11-21T07:47:32;38.20;;;19.92;;
40256;SDS011;25977;45.462;9.210;2023-11-21T07:49:59;43.72;;;20.60;;
40256;SDS011;25977;45.462;9.210;2023-11-21T07:52:28;41.20;;;20.52;;
40256;SDS011;25977;45.462;9.210;2023-11-21T07:54:54;39.83;;;19.50;;
40256;SDS011;25977;45.462;9.210;2023-11-21T07:57:21;45.58;;;21.48;;
40256;SDS011;25977;45.462;9.210;2023-11-21T07:59:47;43.47;;;21.17;;
40256;SDS011;25977;45.462;9.210;2023-11-21T08:02:13;39.70;;;21.77;;
40256;SDS011;25977;45.462;9.210;2023-11-21T08:04:39;50.20;;;20.35;;
40256;SDS011;25977;45.462;9.210;2023-11-21T08:07:05;45.92;;;21.45;;
40256;SDS011;25977;45.462;9.210;2023-11-21T08:09:31;35.95;;;20.02;;
40256;SDS011;25977;45.462;9.210;2023-11-21T08:11:56;43.35;;;21.30;;
40256;SDS011;25977;45.462;9.210;2023-11-21T08:14:22;41.33;;;21.00;;
40256;SDS011;25977;45.462;9.210;2023-11-21T08:16:50;37.85;;;18.65;;
40256;SDS011;25977;45.462;9.210;2023-11-21T08:19:17;46.05;;;22.70;;
40256;SDS011;25977;45.462;9.210;2023-11-21T08:21:43;46.40;;;19.85;;
40256;SDS011;25977;45.462;9.210;2023-11-21T08:24:09;46.85;;;22.10;;
40256;SDS011;25977;45.462;9.210;2023-11-21T08:26:38;54.30;;;24.25;;
40256;SDS011;25977;45.462;9.210;2023-11-21T08:29:04;39.53;;;20.55;;
40256;SDS011;25977;45.462;9.210;2023-11-21T08:31:32;37.53;;;21.13;;
40256;SDS011;25977;45.462;9.210;2023-11-21T08:33:58;52.58;;;22.05;;
40256;SDS011;25977;45.462;9.210;2023-11-21T08:36:27;38.33;;;21.42;;
40256;SDS011;25977;45.462;9.210;2023-11-21T08:38:53;36.00;;;22.08;;
40256;SDS011;25977;45.462;9.210;2023-11-21T08:41:19;46.75;;;19.88;;
40256;SDS011;25977;45.462;9.210;2023-11-21T08:43:47;37.38;;;20.73;;
40256;SDS011;25977;45.462;9.210;2023-11-21T08:46:15;38.47;;;21.77;;
40256;SDS011;25977;45.462;9.210;2023-11-21T08:48:42;47.63;;;22.88;;
40256;SDS011;25977;45.462;9.210;2023-11-21T08:51:09;41.22;;;22.65;;
40256;SDS011;25977;45.462;9.210;2023-11-21T08:53:42;64.28;;;24.40;;
40256;SDS011;25977;45.462;9.210;2023-11-21T08:56:07;46.83;;;24.05;;
40256;SDS011;25977;45.462;9.210;2023-11-21T08:58:37;44.83;;;22.55;;
40256;SDS011;25977;45.462;9.210;2023-11-21T09:01:03;40.70;;;21.63;;
40256;SDS011;25977;45.462;9.210;2023-11-21T09:03:29;46.80;;;23.42;;
40256;SDS011;25977;45.462;9.210;2023-11-21T09:05:56;35.28;;;21.70;;
40256;SDS011;25977;45.462;9.210;2023-11-21T09:08:23;42.47;;;22.90;;
40256;SDS011;25977;45.462;9.210;2023-11-21T09:10:49;54.13;;;25.48;;
40256;SDS011;25977;45.462;9.210;2023-11-21T09:13:15;42.78;;;23.65;;
40256;SDS011;25977;45.462;9.210;2023-11-21T09:15:42;38.88;;;21.67;;
40256;SDS011;25977;45.462;9.210;2023-11-21T09:18:12;42.05;;;22.77;;
40256;SDS011;25977;45.462;9.210;2023-11-21T09:20:38;44.10;;;23.35;;
40256;SDS011;25977;45.462;9.210;2023-11-21T09:23:04;49.25;;;23.60;;
40256;SDS011;25977;45.462;9.210;2023-11-21T09:25:29;46.50;;;23.02;;
40256;SDS011;25977;45.462;9.210;2023-11-21T09:27:55;43.53;;;22.05;;
40256;SDS011;25977;45.462;9.210;2023-11-21T09:30:22;48.25;;;22.58;;
40256;SDS011;25977;45.462;9.210;2023-11-21T09:32:50;39.67;;;22.25;;
40256;SDS011;25977;45.462;9.210;2023-11-21T09:35:16;38.45;;;22.00;;
40256;SDS011;25977;45.462;9.210;2023-11-21T09:37:45;38.50;;;22.23;;
40256;SDS011;25977;45.462;9.210;2023-11-21T09:40:11;45.70;;;22.77;;
40256;SDS011;25977;45.462;9.210;2023-11-21T09:45:26;40.95;;;22.13;;
40256;SDS011;25977;45.462;9.210;2023-11-21T09:47:59;40.15;;;20.27;;
40256;SDS011;25977;45.462;9.210;2023-11-21T09:50:26;41.47;;;21.40;;
40256;SDS011;25977;45.462;9.210;2023-11-21T09:55:36;46.40;;;24.33;;
40256;SDS011;25977;45.462;9.210;2023-11-21T09:58:05;44.45;;;24.58;;
40256;SDS011;25977;45.462;9.210;2023-11-21T10:00:36;44.97;;;22.95;;
40256;SDS011;25977;45.462;9.210;2023-11-21T10:03:12;46.85;;;23.27;;
40256;SDS011;25977;45.462;9.210;2023-11-21T10:05:39;44.45;;;24.27;;
40256;SDS011;25977;45.462;9.210;2023-11-21T10:08:07;54.63;;;25.13;;
40256;SDS011;25977;45.462;9.210;2023-11-21T10:10:37;47.88;;;23.70;;
40256;SDS011;25977;45.462;9.210;2023-11-21T10:13:11;44.10;;;24.48;;
40256;SDS011;25977;45.462;9.210;2023-11-21T10:15:38;43.33;;;23.00;;
40256;SDS011;25977;45.462;9.210;2023-11-21T10:18:06;47.22;;;22.50;;
40256;SDS011;25977;45.462;9.210;2023-11-21T10:20:33;46.80;;;23.00;;
40256;SDS011;25977;45.462;9.210;2023-11-21T10:22:59;44.58;;;22.20;;
40256;SDS011;25977;45.462;9.210;2023-11-21T10:25:29;45.80;;;21.80;;
40256;SDS011;25977;45.462;9.210;2023-11-21T10:27:59;44.25;;;22.95;;
40256;SDS011;25977;45.462;9.210;2023-11-21T10:30:36;36.20;;;21.92;;
40256;SDS011;25977;45.462;9.210;2023-11-21T10:33:03;40.92;;;23.25;;
40256;SDS011;25977;45.462;9.210;2023-11-21T10:38:13;45.30;;;22.13;;
40256;SDS011;25977;45.462;9.210;2023-11-21T10:40:43;46.47;;;22.95;;
40256;SDS011;25977;45.462;9.210;2023-11-21T10:43:09;47.67;;;23.60;;
40256;SDS011;25977;45.462;9.210;2023-11-21T10:45:39;43.90;;;24.45;;
40256;SDS011;25977;45.462;9.210;2023-11-21T10:48:05;41.95;;;23.23;;
40256;SDS011;25977;45.462;9.210;2023-11-21T10:50:36;47.33;;;22.88;;
40256;SDS011;25977;45.462;9.210;2023-11-21T10:53:05;39.70;;;20.83;;
40256;SDS011;25977;45.462;9.210;2023-11-21T10:55:33;42.60;;;22.23;;
40256;SDS011;25977;45.462;9.210;2023-11-21T10:58:00;38.08;;;23.08;;
40256;SDS011;25977;45.462;9.210;2023-11-21T11:00:28;40.38;;;22.00;;
40256;SDS011;25977;45.462;9.210;2023-11-21T11:02:54;42.83;;;22.63;;
40256;SDS011;25977;45.462;9.210;2023-11-21T11:05:21;43.85;;;22.63;;
40256;SDS011;25977;45.462;9.210;2023-11-21T11:07:52;41.28;;;22.67;;
40256;SDS011;25977;45.462;9.210;2023-11-21T11:10:45;40.33;;;22.52;;
40256;SDS011;25977;45.462;9.210;2023-11-21T11:13:14;39.30;;;22.58;;
40256;SDS011;25977;45.462;9.210;2023-11-21T11:15:40;43.63;;;23.25;;
40256;SDS011;25977;45.462;9.210;2023-11-21T11:18:08;46.85;;;23.80;;
40256;SDS011;25977;45.462;9.210;2023-11-21T11:20:34;42.70;;;23.90;;
40256;SDS011;25977;45.462;9.210;2023-11-21T11:29:10;43.65;;;22.13;;
40256;SDS011;25977;45.462;9.210;2023-11-21T11:35:16;40.15;;;22.63;;
40256;SDS011;25977;45.462;9.210;2023-11-21T11:37:43;44.50;;;25.60;;
40256;SDS011;25977;45.462;9.210;2023-11-21T11:40:12;37.67;;;22.08;;
40256;SDS011;25977;45.462;9.210;2023-11-21T11:42:38;40.90;;;22.45;;
40256;SDS011;25977;45.462;9.210;2023-11-21T11:45:19;42.45;;;23.50;;
40256;SDS011;25977;45.462;9.210;2023-11-21T11:47:45;49.38;;;22.58;;
40256;SDS011;25977;45.462;9.210;2023-11-21T11:50:13;38.88;;;23.00;;
40256;SDS011;25977;45.462;9.210;2023-11-21T11:52:45;44.25;;;24.60;;
40256;SDS011;25977;45.462;9.210;2023-11-21T11:57:39;42.55;;;25.00;;
40256;SDS011;25977;45.462;9.210;2023-11-21T12:00:10;38.55;;;23.63;;
40256;SDS011;25977;45.462;9.210;2023-11-21T12:02:42;41.17;;;24.15;;
40256;SDS011;25977;45.462;9.210;2023-11-21T12:05:13;46.20;;;25.40;;
40256;SDS011;25977;45.462;9.210;2023-11-21T12:07:43;37.00;;;24.15;;
40256;SDS011;25977;45.462;9.210;2023-11-21T12:10:13;54.17;;;25.58;;
40256;SDS011;25977;45.462;9.210;2023-11-21T12:12:46;46.38;;;25.85;;
40256;SDS011;25977;45.462;9.210;2023-11-21T12:15:13;46.63;;;25.95;;
40256;SDS011;25977;45.462;9.210;2023-11-21T12:17:42;45.63;;;25.80;;
40256;SDS011;25977;45.462;9.210;2023-11-21T12:20:09;45.53;;;24.27;;
40256;SDS011;25977;45.462;9.210;2023-11-21T12:23:12;44.67;;;24.77;;
40256;SDS011;25977;45.462;9.210;2023-11-21T12:25:31;47.00;;;25.20;;
40256;SDS011;25977;45.462;9.210;2023-11-21T12:27:58;48.90;;;25.40;;
40256;SDS011;25977;45.462;9.210;2023-11-21T12:30:29;42.65;;;25.75;;
40256;SDS011;25977;45.462;9.210;2023-11-21T12:32:56;46.00;;;23.52;;
40256;SDS011;25977;45.462;9.210;2023-11-21T12:35:26;44.33;;;25.10;;
40256;SDS011;25977;45.462;9.210;2023-11-21T12:37:57;44.70;;;25.25;;
40256;SDS011;25977;45.462;9.210;2023-11-21T12:40:22;45.55;;;23.90;;
40256;SDS011;25977;45.462;9.210;2023-11-21T12:42:50;39.95;;;22.90;;
40256;SDS011;25977;45.462;9.210;2023-11-21T12:45:25;35.60;;;22.42;;
40256;SDS011;25977;45.462;9.210;2023-11-21T12:47:54;48.60;;;25.50;;
40256;SDS011;25977;45.462;9.210;2023-11-21T12:50:22;42.72;;;24.17;;
40256;SDS011;25977;45.462;9.210;2023-11-21T12:52:49;46.05;;;23.45;;
40256;SDS011;25977;45.462;9.210;2023-11-21T12:55:20;43.35;;;24.17;;
40256;SDS011;25977;45.462;9.210;2023-11-21T12:57:49;46.67;;;23.73;;
40256;SDS011;25977;45.462;9.210;2023-11-21T13:00:17;50.83;;;23.90;;
40256;SDS011;25977;45.462;9.210;2023-11-21T13:02:55;46.80;;;25.25;;
40256;SDS011;25977;45.462;9.210;2023-11-21T13:05:28;45.72;;;24.30;;
40256;SDS011;25977;45.462;9.210;2023-11-21T13:07:55;47.08;;;26.83;;
40256;SDS011;25977;45.462;9.210;2023-11-21T13:10:26;41.53;;;25.30;;
40256;SDS011;25977;45.462;9.210;2023-11-21T13:12:56;40.40;;;26.23;;
40256;SDS011;25977;45.462;9.210;2023-11-21T13:15:26;46.20;;;24.65;;
40256;SDS011;25977;45.462;9.210;2023-11-21T13:17:52;42.25;;;25.13;;
40256;SDS011;25977;45.462;9.210;2023-11-21T13:20:19;41.80;;;23.88;;
40256;SDS011;25977;45.462;9.210;2023-11-21T13:22:52;46.00;;;26.80;;
40256;SDS011;25977;45.462;9.210;2023-11-21T13:25:20;46.28;;;25.08;;
40256;SDS011;25977;45.462;9.210;2023-11-21T13:27:46;43.20;;;26.83;;
40256;SDS011;25977;45.462;9.210;2023-11-21T13:30:13;46.88;;;24.25;;
40256;SDS011;25977;45.462;9.210;2023-11-21T13:32:44;43.33;;;24.67;;
40256;SDS011;25977;45.462;9.210;2023-11-21T13:37:55;42.65;;;25.42;;
40256;SDS011;25977;45.462;9.210;2023-11-21T13:40:25;44.40;;;24.20;;
40256;SDS011;25977;45.462;9.210;2023-11-21T13:42:55;39.85;;;25.23;;
40256;SDS011;25977;45.462;9.210;2023-11-21T13:47:51;48.15;;;25.73;;
40256;SDS011;25977;45.462;9.210;2023-11-21T13:50:23;45.10;;;25.88;;
40256;SDS011;25977;45.462;9.210;2023-11-21T13:52:54;52.95;;;26.83;;
40256;SDS011;25977;45.462;9.210;2023-11-21T13:55:20;45.83;;;25.88;;
40256;SDS011;25977;45.462;9.210;2023-11-21T13:57:49;45.85;;;26.17;;
40256;SDS011;25977;45.462;9.210;2023-11-21T14:00:17;39.83;;;24.92;;
40256;SDS011;25977;45.462;9.210;2023-11-21T14:03:09;40.70;;;25.50;;
40256;SDS011;25977;45.462;9.210;2023-11-21T14:05:43;48.35;;;27.27;;
40256;SDS011;25977;45.462;9.210;2023-11-21T14:08:09;50.72;;;26.02;;
40256;SDS011;25977;45.462;9.210;2023-11-21T14:10:37;46.30;;;25.13;;
40256;SDS011;25977;45.462;9.210;2023-11-21T14:13:11;47.60;;;25.92;;
40256;SDS011;25977;45.462;9.210;2023-11-21T14:15:38;44.70;;;26.00;;
40256;SDS011;25977;45.462;9.210;2023-11-21T14:18:08;43.25;;;24.88;;
40256;SDS011;25977;45.462;9.210;2023-11-21T14:20:39;42.10;;;24.25;;
40256;SDS011;25977;45.462;9.210;2023-11-21T14:23:06;47.67;;;24.95;;
40256;SDS011;25977;45.462;9.210;2023-11-21T14:25:33;41.90;;;23.42;;
40256;SDS011;25977;45.462;9.210;2023-11-21T14:28:00;44.10;;;24.58;;
40256;SDS011;25977;45.462;9.210;2023-11-21T14:30:26;43.63;;;25.40;;
40256;SDS011;25977;45.462;9.210;2023-11-21T14:32:52;45.28;;;25.80;;
40256;SDS011;25977;45.462;9.210;2023-11-21T14:35:18;47.20;;;26.55;;
40256;SDS011;25977;45.462;9.210;2023-11-21T14:37:44;45.63;;;25.33;;
40256;SDS011;25977;45.462;9.210;2023-11-21T14:40:12;44.40;;;24.45;;
40256;SDS011;25977;45.462;9.210;2023-11-21T14:42:41;41.75;;;24.90;;
40256;SDS011;25977;45.462;9.210;2023-11-21T14:45:07;47.83;;;24.55;;
40256;SDS011;25977;45.462;9.210;2023-11-21T14:47:34;47.80;;;25.52;;
40256;SDS011;25977;45.462;9.210;2023-11-21T14:50:03;45.90;;;24.50;;
40256;SDS011;25977;45.462;9.210;2023-11-21T14:52:49;39.47;;;23.13;;